Time;durP1;ratioP1;P1;durP2;ratioP2;P2;SDS_P1;SDS_P2;PMS_P1;PMS_P2;Temp;Humidity;BMP_temperature;BMP_pressure;BME280_temperature;BME280_humidity;BME280_pressure;Samples;Min_cycle;Max_cycle;Signal;HPM_P1;HPM_P2
2022/08/27 00:00:45;;;;;;;;;6.00;4.50;;;;;20.95;57.67;101491.91;5072554;27;49663;-71
2022/08/27 00:03:11;;;;;;;;;4.75;3.75;;;;;21.00;57.71;101501.63;5072868;27;49612;-70
2022/08/27 00:05:37;;;;;;;;;0.00;0.00;;;;;21.02;57.53;101496.25;5070774;27;52578;-70
2022/08/27 00:08:04;;;;;;;;;2.50;2.50;;;;;21.00;57.44;101498.06;5072507;27;49597;-70
2022/08/27 00:10:29;;;;;;;;;4.50;3.50;;;;;20.91;57.65;101476.81;5072695;27;50092;-70
2022/08/27 00:12:55;;;;;;;;;4.00;3.75;;;;;21.02;57.58;101494.47;5072775;27;49833;-70
2022/08/27 00:15:22;;;;;;;;;2.25;1.75;;;;;21.00;57.43;101492.72;5072414;27;50847;-70
2022/08/27 00:17:47;;;;;;;;;3.50;3.50;;;;;20.93;57.97;101496.34;5072363;27;49649;-70
2022/08/27 00:20:19;;;;;;;;;3.75;2.75;;;;;20.82;58.16;101486.66;5071992;27;49759;-70
2022/08/27 00:22:44;;;;;;;;;2.25;2.25;;;;;20.73;58.32;101476.09;5085811;27;49628;-71
2022/08/27 00:25:10;;;;;;;;;1.75;1.75;;;;;20.61;58.21;101449.53;5091890;27;49689;-70
2022/08/27 00:27:37;;;;;;;;;2.25;2.25;;;;;20.79;58.57;101491.16;5092066;27;49819;-70
2022/08/27 00:30:06;;;;;;;;;2.75;2.75;;;;;20.81;58.56;101489.34;5092005;27;49948;-70
2022/08/27 00:32:32;;;;;;;;;3.00;3.00;;;;;20.82;58.48;101493.78;5091842;27;49861;-70
2022/08/27 00:34:57;;;;;;;;;1.75;1.75;;;;;20.79;58.44;101492.03;5091374;27;50981;-70
2022/08/27 00:37:22;;;;;;;;;1.75;1.00;;;;;20.56;58.13;101443.38;5092000;27;50073;-70
2022/08/27 00:39:48;;;;;;;;;3.25;2.25;;;;;20.79;58.06;101497.38;5091758;27;49666;-70
2022/08/27 00:42:14;;;;;;;;;1.50;1.50;;;;;20.75;58.49;101481.41;5091817;27;50098;-70
2022/08/27 00:44:39;;;;;;;;;1.75;1.75;;;;;20.61;58.52;101484.22;5091405;27;49617;-70
2022/08/27 00:47:12;;;;;;;;;2.00;2.00;;;;;20.75;58.37;101489.41;5091556;27;49579;-70
2022/08/27 00:49:44;;;;;;;;;4.50;2.75;;;;;20.75;58.39;101500.06;5091154;27;49955;-71
2022/08/27 00:52:21;;;;;;;;;4.75;2.00;;;;;20.68;58.80;101501.94;5091427;27;49890;-70
2022/08/27 00:54:50;;;;;;;;;1.00;1.00;;;;;20.66;58.78;101494.84;5091250;27;49821;-70
2022/08/27 00:57:16;;;;;;;;;3.00;3.00;;;;;20.49;58.89;101477.22;5091386;27;50058;-70
2022/08/27 00:59:43;;;;;;;;;4.00;3.00;;;;;20.37;58.90;101461.28;5091309;27;49651;-70
2022/08/27 01:02:18;;;;;;;;;3.00;1.00;;;;;20.10;59.02;101406.41;5071795;27;49541;-70
2022/08/27 01:04:46;;;;;;;;;4.00;2.00;;;;;20.62;59.04;101490.44;5071745;27;51164;-71
2022/08/27 01:07:13;;;;;;;;;1.25;1.25;;;;;20.44;59.02;101464.81;5071608;27;49708;-70
2022/08/27 01:09:40;;;;;;;;;2.00;2.00;;;;;20.31;59.38;101464.00;5071849;27;50075;-70
2022/08/27 01:12:06;;;;;;;;;4.00;4.00;;;;;20.52;59.66;101494.97;5071587;27;49962;-71
2022/08/27 01:14:32;;;;;;;;;3.00;3.00;;;;;20.43;59.48;101479.91;5071383;27;49834;-70
2022/08/27 01:17:00;;;;;;;;;2.00;2.00;;;;;20.29;59.56;101461.34;5071656;27;49858;-71
2022/08/27 01:19:43;;;;;;;;;2.25;2.25;;;;;20.36;59.32;101472.81;5071332;27;49744;-70
2022/08/27 01:22:31;;;;;;;;;2.50;2.00;;;;;20.58;59.45;101497.59;5071554;27;49917;-71
2022/08/27 01:25:03;;;;;;;;;3.50;3.50;;;;;20.35;59.07;101468.38;5071287;27;50588;-70
2022/08/27 01:27:33;;;;;;;;;3.25;3.25;;;;;20.32;59.49;101451.53;5071256;27;49656;-70
2022/08/27 01:29:59;;;;;;;;;3.00;3.00;;;;;20.32;59.62;101467.53;5071135;27;49640;-70
2022/08/27 01:32:30;;;;;;;;;2.00;2.00;;;;;20.33;59.66;101472.84;5071632;27;49784;-70
2022/08/27 01:34:57;;;;;;;;;4.00;4.00;;;;;20.35;59.74;101476.38;5070534;27;49954;-70
2022/08/27 01:37:25;;;;;;;;;3.00;3.00;;;;;20.38;59.85;101487.06;5070711;27;50006;-70
2022/08/27 01:39:52;;;;;;;;;3.00;3.00;;;;;20.37;59.88;101497.75;5071330;27;49715;-70
2022/08/27 01:42:23;;;;;;;;;4.75;3.75;;;;;20.28;60.04;101485.34;5071323;27;49666;-70
2022/08/27 01:44:52;;;;;;;;;4.00;4.00;;;;;20.15;60.21;101471.22;5071043;27;50004;-70
2022/08/27 01:47:20;;;;;;;;;2.00;2.00;;;;;20.19;60.22;101480.09;5070964;27;49874;-70
2022/08/27 01:49:46;;;;;;;;;4.00;2.00;;;;;20.06;60.36;101459.72;5070652;27;49729;-70
2022/08/27 01:52:13;;;;;;;;;2.25;2.00;;;;;19.91;60.27;101436.75;5071126;27;49948;-70
2022/08/27 01:54:38;;;;;;;;;2.00;2.00;;;;;20.03;60.56;101468.66;5070773;27;50553;-70
2022/08/27 01:57:03;;;;;;;;;2.00;2.00;;;;;19.73;60.39;101419.09;5070928;27;49763;-70
2022/08/27 01:59:29;;;;;;;;;1.25;1.25;;;;;20.10;60.51;101486.38;5070947;27;49603;-70
2022/08/27 02:01:55;;;;;;;;;2.00;2.00;;;;;20.04;60.53;101485.53;5070674;27;49886;-70
2022/08/27 02:04:21;;;;;;;;;1.00;1.00;;;;;20.11;60.55;101480.16;5070364;27;49774;-70
2022/08/27 02:06:46;;;;;;;;;1.50;1.00;;;;;20.01;60.59;101470.44;5071208;27;49995;-70
2022/08/27 02:09:12;;;;;;;;;4.75;3.00;;;;;20.07;60.46;101470.38;5069584;27;49823;-70
2022/08/27 02:11:37;;;;;;;;;3.25;2.25;;;;;19.90;60.36;101448.31;5070821;27;49753;-70
2022/08/27 02:14:03;;;;;;;;;2.00;2.00;;;;;20.12;60.41;101483.69;5070927;27;49805;-71
2022/08/27 02:16:31;;;;;;;;;2.75;2.75;;;;;20.11;60.62;101466.81;5070619;27;49681;-70
2022/08/27 02:18:57;;;;;;;;;4.25;3.00;;;;;20.05;60.23;101464.19;5070371;27;49742;-71
2022/08/27 02:21:22;;;;;;;;;4.00;2.75;;;;;19.98;60.39;101452.69;5070878;27;50047;-70
2022/08/27 02:23:47;;;;;;;;;1.75;1.75;;;;;19.76;60.03;101396.88;5070477;27;49842;-70
2022/08/27 02:26:13;;;;;;;;;5.00;3.00;;;;;20.21;59.92;101472.97;5070289;27;51797;-70
2022/08/27 02:28:38;;;;;;;;;3.00;2.00;;;;;19.98;60.31;101446.50;5070600;27;49882;-70
2022/08/27 02:31:03;;;;;;;;;3.00;3.00;;;;;20.21;60.08;101470.28;5070892;27;49744;-69
2022/08/27 02:33:31;;;;;;;;;3.00;2.00;;;;;20.23;60.28;101469.38;5070096;27;50586;-70
2022/08/27 02:35:56;;;;;;;;;3.00;3.00;;;;;20.23;60.05;101472.03;5070388;27;49972;-70
2022/08/27 02:38:22;;;;;;;;;5.50;4.00;;;;;19.98;59.70;101427.84;5070496;27;49666;-70
2022/08/27 02:40:47;;;;;;;;;2.25;2.25;;;;;20.06;59.97;101446.41;5070614;27;49644;-70
2022/08/27 02:43:12;;;;;;;;;2.75;2.75;;;;;20.16;60.01;101456.97;5069971;27;50049;-70
2022/08/27 02:45:38;;;;;;;;;2.00;2.00;;;;;20.06;59.82;101444.63;5070335;27;49859;-70
2022/08/27 02:48:04;;;;;;;;;4.75;4.25;;;;;20.15;59.94;101462.34;5071402;27;49612;-70
2022/08/27 02:50:30;;;;;;;;;4.00;2.50;;;;;20.00;60.00;101445.56;5073693;27;49806;-70
2022/08/27 02:52:55;;;;;;;;;3.00;3.00;;;;;20.22;60.52;101482.72;5073690;27;50932;-70
2022/08/27 02:55:21;;;;;;;;;1.75;1.75;;;;;19.95;60.26;101435.81;5073942;27;49751;-70
2022/08/27 02:57:47;;;;;;;;;3.00;3.00;;;;;20.04;60.15;101421.56;5073701;27;49827;-70
2022/08/27 03:00:16;;;;;;;;;3.00;3.00;;;;;20.00;60.16;101440.25;5073562;27;49755;-70
2022/08/27 03:02:42;;;;;;;;;1.75;1.75;;;;;20.19;60.29;101472.09;5073465;27;50436;-70
2022/08/27 03:05:10;;;;;;;;;2.00;1.00;;;;;20.20;60.30;101465.88;5072075;27;49789;-70
2022/08/27 03:07:36;;;;;;;;;6.25;2.00;;;;;20.08;60.03;101453.53;5072334;27;49860;-70
2022/08/27 03:10:02;;;;;;;;;2.00;2.00;;;;;19.86;60.39;101426.13;5073568;27;49702;-70
2022/08/27 03:12:27;;;;;;;;;5.25;4.00;;;;;19.93;60.60;101442.97;5073313;27;51200;-70
2022/08/27 03:14:53;;;;;;;;;3.25;3.25;;;;;19.88;60.71;101435.00;5073052;27;49775;-71
2022/08/27 03:20:04;;;;;;;;;2.25;2.25;;;;;19.93;60.88;101459.81;5073401;27;49729;-69
2022/08/27 03:22:29;;;;;;;;;2.00;2.00;;;;;19.78;60.84;101435.94;5072988;27;49775;-70
2022/08/27 03:24:55;;;;;;;;;3.75;3.00;;;;;19.68;60.89;101416.47;5073172;27;49739;-70
2022/08/27 03:27:20;;;;;;;;;2.00;2.00;;;;;19.89;60.74;101450.09;5073315;27;50169;-70
2022/08/27 03:29:47;;;;;;;;;4.50;3.50;;;;;19.84;61.32;101451.88;5073590;27;50142;-70
2022/08/27 03:32:12;;;;;;;;;2.25;2.25;;;;;19.69;60.82;101428.03;5072803;27;51779;-69
2022/08/27 03:34:38;;;;;;;;;4.75;3.00;;;;;19.58;61.42;101419.19;5072548;27;53424;-71
2022/08/27 03:37:03;;;;;;;;;2.50;2.50;;;;;19.77;61.19;101455.47;5073008;27;50016;-70
2022/08/27 03:39:28;;;;;;;;;4.00;4.00;;;;;19.63;61.25;101434.25;5073364;27;49837;-69
2022/08/27 03:41:54;;;;;;;;;5.50;2.00;;;;;19.62;61.43;101440.50;5073246;27;49851;-70
2022/08/27 03:44:19;;;;;;;;;3.50;2.25;;;;;19.28;61.23;101381.16;5071587;27;49647;-70
2022/08/27 03:46:45;;;;;;;;;5.25;3.00;;;;;19.19;61.37;101359.91;5071957;27;50002;-70
2022/08/27 03:49:10;;;;;;;;;1.50;1.50;;;;;19.73;61.60;101457.28;5071475;27;49680;-70
2022/08/27 03:51:36;;;;;;;;;4.00;4.00;;;;;19.60;61.57;101439.63;5072513;27;49785;-70
2022/08/27 03:54:01;;;;;;;;;4.00;4.00;;;;;19.53;61.58;101431.63;5072702;27;49730;-70
2022/08/27 03:56:26;;;;;;;;;4.25;4.25;;;;;19.42;61.60;101407.72;5072746;27;49833;-70
2022/08/27 03:58:52;;;;;;;;;4.50;3.00;;;;;19.65;61.81;101450.22;5072197;27;49701;-70
2022/08/27 04:01:18;;;;;;;;;3.75;3.00;;;;;19.41;61.64;101414.81;5072607;27;50759;-70
2022/08/27 04:03:43;;;;;;;;;5.25;4.25;;;;;19.34;61.86;101415.75;5091941;27;49737;-70
2022/08/27 04:06:08;;;;;;;;;2.75;2.75;;;;;19.48;61.88;101442.28;5092424;27;49704;-70
2022/08/27 04:08:34;;;;;;;;;2.50;2.25;;;;;19.40;62.11;101426.38;5092111;27;49619;-70
2022/08/27 04:11:04;;;;;;;;;3.50;3.00;;;;;19.37;61.86;101426.38;5091716;27;50036;-70
2022/08/27 04:13:30;;;;;;;;;5.00;3.75;;;;;19.47;62.09;101458.28;5092014;27;49874;-69
2022/08/27 04:15:55;;;;;;;;;4.00;4.00;;;;;19.21;62.47;101424.69;5091921;27;50362;-70
2022/08/27 04:18:21;;;;;;;;;5.00;4.00;;;;;19.30;62.43;101431.72;5092264;27;50239;-70
2022/08/27 04:20:48;;;;;;;;;3.75;3.75;;;;;19.01;62.67;101391.91;5091789;27;50229;-70
2022/08/27 04:23:15;;;;;;;;;4.75;4.75;;;;;19.34;62.11;101445.03;5091887;27;49647;-70
2022/08/27 04:25:41;;;;;;;;;1.25;1.25;;;;;19.35;62.43;101453.91;5091874;27;49686;-70
2022/08/27 04:28:07;;;;;;;;;5.75;4.00;;;;;19.33;62.72;101448.59;5092010;27;49744;-70
2022/08/27 04:30:37;;;;;;;;;6.75;6.75;;;;;19.14;62.75;101412.28;5091792;27;49999;-70
2022/08/27 04:33:03;;;;;;;;;3.25;3.25;;;;;19.23;63.16;101427.34;5091589;27;49745;-70
2022/08/27 04:35:28;;;;;;;;;5.25;3.75;;;;;19.22;63.08;101437.09;5091427;27;49770;-70
2022/08/27 04:37:54;;;;;;;;;5.25;3.75;;;;;18.96;63.26;101401.72;5091809;27;49612;-70
2022/08/27 04:40:19;;;;;;;;;4.25;4.25;;;;;18.99;63.26;101415.88;5091462;27;49786;-70
2022/08/27 04:42:47;;;;;;;;;2.00;2.00;;;;;19.12;63.05;101436.25;5091431;27;53179;-70
2022/08/27 04:45:12;;;;;;;;;4.25;3.25;;;;;19.16;63.57;101437.13;5091889;27;49994;-70
2022/08/27 04:47:38;;;;;;;;;4.75;3.50;;;;;18.97;63.17;101401.69;5090996;27;55434;-70
2022/08/27 04:50:04;;;;;;;;;2.50;2.00;;;;;18.99;63.38;101426.53;5091138;27;49779;-70
2022/08/27 04:52:29;;;;;;;;;5.00;5.00;;;;;18.94;63.73;101424.78;5091233;27;49841;-70
2022/08/27 04:54:54;;;;;;;;;2.50;2.50;;;;;18.71;63.98;101391.13;5091530;27;49887;-70
2022/08/27 04:57:20;;;;;;;;;4.25;4.25;;;;;18.78;64.04;101415.94;5091822;27;49775;-70
2022/08/27 04:59:46;;;;;;;;;6.75;5.75;;;;;18.82;64.36;101431.91;5091022;27;50495;-70
2022/08/27 05:02:11;;;;;;;;;3.75;3.75;;;;;18.89;63.93;101456.69;5091242;27;49619;-70
2022/08/27 05:04:38;;;;;;;;;5.25;3.00;;;;;18.86;64.12;101446.97;5091133;27;49645;-70
2022/08/27 05:07:05;;;;;;;;;5.00;3.75;;;;;18.83;64.29;101454.06;5107448;27;50068;-70
2022/08/27 05:09:30;;;;;;;;;4.75;4.50;;;;;18.60;64.42;101417.72;5091085;27;49811;-71
2022/08/27 05:11:55;;;;;;;;;3.75;3.75;;;;;18.62;63.99;101416.81;5090257;27;49846;-71
2022/08/27 05:14:22;;;;;;;;;4.00;4.00;;;;;18.71;64.12;101435.47;5091608;27;49663;-70
2022/08/27 05:16:48;;;;;;;;;6.00;5.00;;;;;18.82;64.16;101455.84;5091938;27;49883;-70
2022/08/27 05:19:14;;;;;;;;;4.25;4.25;;;;;18.75;64.34;101454.09;5090550;27;50753;-70
2022/08/27 05:21:44;;;;;;;;;5.50;4.50;;;;;18.49;64.33;101398.25;5090815;27;49854;-70
2022/08/27 05:24:10;;;;;;;;;4.50;3.75;;;;;18.76;64.09;101433.69;5090979;27;49633;-70
2022/08/27 05:26:36;;;;;;;;;3.75;3.00;;;;;18.86;64.08;101457.59;5089749;27;49770;-69
2022/08/27 05:29:03;;;;;;;;;3.75;3.75;;;;;18.92;63.83;101464.69;5090884;27;50507;-70
2022/08/27 05:31:29;;;;;;;;;5.50;4.50;;;;;18.76;63.84;101431.91;5090716;27;49895;-69
2022/08/27 05:33:55;;;;;;;;;5.50;3.75;;;;;18.92;63.56;101442.53;5090583;27;49703;-69
2022/08/27 05:36:28;;;;;;;;;4.50;4.00;;;;;18.95;63.41;101450.50;5090897;27;49909;-70
2022/08/27 05:38:55;;;;;;;;;4.00;2.75;;;;;19.05;63.25;101466.44;5089013;27;50973;-69
2022/08/27 05:41:27;;;;;;;;;4.00;4.00;;;;;19.00;63.26;101462.00;5090448;27;49824;-70
2022/08/27 05:43:54;;;;;;;;;2.75;2.75;;;;;18.86;63.33;101438.09;5090662;27;49812;-70
2022/08/27 05:46:21;;;;;;;;;10.25;5.00;;;;;19.05;63.12;101470.88;5090777;27;49702;-70
2022/08/27 05:48:48;;;;;;;;;4.00;3.75;;;;;18.86;63.29;101431.00;5090144;27;50638;-69
2022/08/27 05:51:36;;;;;;;;;5.75;4.00;;;;;19.05;63.25;101478.84;5090920;27;49926;-70
2022/08/27 05:54:09;;;;;;;;;7.75;3.50;;;;;18.96;63.14;101474.44;5090534;27;49838;-70
2022/08/27 05:56:36;;;;;;;;;3.00;3.00;;;;;18.92;63.25;101488.66;5090652;27;49878;-70
2022/08/27 06:01:49;;;;;;;;;6.50;4.50;;;;;18.79;63.66;101470.91;5090228;27;49789;-70
2022/08/27 06:04:16;;;;;;;;;5.00;5.00;;;;;18.65;64.04;101459.44;5088875;27;49699;-70
2022/08/27 06:06:43;;;;;;;;;4.00;3.00;;;;;18.74;63.89;101478.03;5090544;27;49717;-70
2022/08/27 06:09:11;;;;;;;;;5.00;3.25;;;;;18.40;63.82;101406.22;5090203;27;49793;-70
2022/08/27 06:11:37;;;;;;;;;6.00;5.00;;;;;18.84;63.83;101471.81;5090241;27;49733;-70
2022/08/27 06:14:04;;;;;;;;;3.25;3.25;;;;;18.46;63.80;101405.34;5090215;27;49626;-69
2022/08/27 06:16:29;;;;;;;;;3.25;3.00;;;;;18.76;63.79;101452.31;5090306;27;49951;-70
2022/08/27 06:18:58;;;;;;;;;3.25;3.00;;;;;18.71;63.70;101441.66;5089884;27;50275;-70
2022/08/27 06:21:24;;;;;;;;;7.00;4.50;;;;;18.74;63.69;101454.09;5090157;27;49711;-69
2022/08/27 06:23:51;;;;;;;;;5.25;4.00;;;;;18.90;64.04;101477.09;5093936;27;49571;-70
2022/08/27 06:26:18;;;;;;;;;4.25;3.25;;;;;18.75;63.35;101442.56;5094007;27;49555;-70
2022/08/27 06:28:43;;;;;;;;;4.75;4.75;;;;;18.92;63.61;101470.03;5093727;27;49710;-70
2022/08/27 06:31:19;;;;;;;;;4.75;4.50;;;;;18.96;63.48;101476.22;5093365;27;49645;-70
2022/08/27 06:33:46;;;;;;;;;4.25;3.50;;;;;19.09;63.04;101492.13;5093535;27;49806;-70
2022/08/27 06:36:16;;;;;;;;;3.00;3.00;;;;;18.98;62.96;101458.47;5093740;27;49640;-70
2022/08/27 06:38:46;;;;;;;;;3.00;3.00;;;;;19.15;62.83;101469.94;5093195;27;50823;-69
2022/08/27 06:41:14;;;;;;;;;6.00;6.00;;;;;19.28;62.50;101474.31;5093885;27;49919;-70
2022/08/27 06:43:41;;;;;;;;;4.00;4.00;;;;;19.28;62.73;101484.97;5093499;27;49654;-70
2022/08/27 06:46:10;;;;;;;;;6.75;6.25;;;;;19.27;62.69;101477.00;5093679;27;49967;-69
2022/08/27 06:48:35;;;;;;;;;6.75;5.75;;;;;19.32;62.43;101483.22;5093109;27;50880;-70
2022/08/27 06:51:19;;;;;;;;;4.50;4.50;;;;;19.31;62.65;101471.69;5093073;27;49725;-69
2022/08/27 06:53:46;;;;;;;;;5.75;5.25;;;;;19.32;62.32;101464.56;5093251;27;49897;-70
2022/08/27 06:56:12;;;;;;;;;7.75;7.25;;;;;19.42;62.26;101471.63;5093366;27;49853;-70
2022/08/27 06:58:39;;;;;;;;;6.00;6.00;;;;;19.42;62.19;101472.50;5108866;27;51980;-70
2022/08/27 07:01:35;;;;;;;;;5.00;5.00;;;;;19.55;61.88;101481.31;5093167;27;49642;-70
2022/08/27 07:04:06;;;;;;;;;6.50;5.50;;;;;19.73;61.69;101494.59;5091982;27;49872;-69
2022/08/27 07:06:33;;;;;;;;;6.00;6.00;;;;;19.82;61.55;101490.09;5092013;27;49724;-70
2022/08/27 07:08:59;;;;;;;;;7.00;6.75;;;;;19.85;60.76;101487.41;5092946;27;49800;-69
2022/08/27 07:11:25;;;;;;;;;7.25;7.25;;;;;19.91;61.08;101498.03;5092911;27;49787;-70
2022/08/27 07:13:51;;;;;;;;;7.75;7.00;;;;;19.85;61.51;101506.06;5093376;27;49822;-70
2022/08/27 07:16:19;;;;;;;;;8.75;7.00;;;;;19.82;61.09;101503.44;5093038;27;49877;-70
2022/08/27 07:18:45;;;;;;;;;7.50;6.00;;;;;19.25;61.37;101399.81;5092596;27;50018;-69
2022/08/27 07:21:12;;;;;;;;;6.50;6.50;;;;;19.86;61.17;101479.41;5093020;27;49947;-69
2022/08/27 07:23:38;;;;;;;;;10.75;9.50;;;;;19.94;60.66;101490.03;5092887;27;49694;-69
2022/08/27 07:26:09;;;;;;;;;7.75;7.75;;;;;20.04;60.88;101502.41;5091637;27;49700;-69
2022/08/27 07:28:36;;;;;;;;;9.00;8.00;;;;;20.01;60.58;101492.66;5092499;27;49785;-69
2022/08/27 07:31:02;;;;;;;;;7.00;6.50;;;;;20.16;60.34;101496.97;5093057;27;49865;-69
2022/08/27 07:33:28;;;;;;;;;8.00;7.00;;;;;20.25;60.32;101512.91;5091951;27;49848;-69
2022/08/27 07:35:53;;;;;;;;;9.50;9.50;;;;;20.00;60.05;101466.91;5092861;27;49942;-70
2022/08/27 07:38:19;;;;;;;;;5.00;5.00;;;;;20.09;60.26;101478.41;5092619;27;60379;-69
2022/08/27 07:40:44;;;;;;;;;17.75;15.75;;;;;20.15;59.88;101489.88;5092608;27;52375;-69
2022/08/27 07:45:55;;;;;;;;;6.75;6.50;;;;;20.34;60.17;101498.63;5092640;27;49801;-70
2022/08/27 07:48:25;;;;;;;;;6.25;6.25;;;;;20.31;59.59;101488.00;5091017;27;50599;-69
2022/08/27 07:50:52;;;;;;;;;8.00;8.00;;;;;20.57;59.89;101509.16;5092211;27;49745;-70
2022/08/27 07:53:18;;;;;;;;;7.50;6.50;;;;;20.43;59.33;101484.38;5092548;27;49819;-70
2022/08/27 07:55:44;;;;;;;;;8.00;6.50;;;;;20.40;59.44;101463.03;5092409;27;49958;-69
2022/08/27 07:58:10;;;;;;;;;8.50;7.50;;;;;20.67;58.97;101502.84;5091074;27;52363;-70
2022/08/27 08:00:35;;;;;;;;;5.50;5.50;;;;;20.64;58.71;101492.19;5091291;27;49803;-69
2022/08/27 08:03:01;;;;;;;;;9.25;8.25;;;;;20.49;58.98;101473.66;5091971;27;49690;-70
2022/08/27 08:05:27;;;;;;;;;8.50;7.50;;;;;20.74;58.99;101517.88;5092423;27;49957;-72
2022/08/27 08:07:52;;;;;;;;;8.25;7.50;;;;;20.68;59.15;101490.38;5092407;27;51011;-69
2022/08/27 08:10:21;;;;;;;;;6.50;6.50;;;;;20.79;59.16;101515.19;5091969;27;49791;-69
2022/08/27 08:12:47;;;;;;;;;6.00;5.25;;;;;20.90;59.26;101512.41;5072773;27;49886;-70
2022/08/27 08:15:14;;;;;;;;;6.00;6.00;;;;;20.72;58.79;101463.66;5072610;27;49732;-70
2022/08/27 08:17:39;;;;;;;;;6.25;5.75;;;;;20.92;58.53;101495.47;5091961;27;51967;-70
2022/08/27 08:20:07;;;;;;;;;9.00;6.75;;;;;21.13;57.54;101521.03;5090560;27;49836;-70
2022/08/27 08:22:32;;;;;;;;;5.00;5.00;;;;;21.14;57.71;101514.84;5092144;27;49894;-70
2022/08/27 08:24:58;;;;;;;;;9.25;7.75;;;;;20.82;56.92;101459.97;5090501;27;49917;-70
2022/08/27 08:27:24;;;;;;;;;4.50;4.50;;;;;21.13;57.59;101511.28;5090574;27;50880;-70
2022/08/27 08:29:50;;;;;;;;;5.25;4.00;;;;;21.38;56.80;101513.69;5091044;27;50220;-70
2022/08/27 08:32:16;;;;;;;;;6.50;6.25;;;;;21.34;57.03;101502.19;5091763;27;49745;-70
2022/08/27 08:34:41;;;;;;;;;4.75;4.75;;;;;21.39;56.83;101494.09;5090601;27;49807;-69
2022/08/27 08:37:07;;;;;;;;;7.75;6.75;;;;;21.55;56.09;101516.16;5090530;27;51002;-69
2022/08/27 08:39:34;;;;;;;;;5.75;4.00;;;;;21.48;56.63;101510.00;5091532;27;49700;-70
2022/08/27 08:42:02;;;;;;;;;6.00;6.00;;;;;21.41;56.33;101494.94;5091550;27;49782;-70
2022/08/27 08:44:33;;;;;;;;;5.25;4.50;;;;;21.62;55.69;101521.44;5090316;27;49726;-70
2022/08/27 08:47:11;;;;;;;;;7.00;6.00;;;;;21.62;55.34;101505.38;5091343;27;50020;-70
2022/08/27 08:49:53;;;;;;;;;6.00;6.00;;;;;21.70;55.60;101514.16;5091185;27;50001;-70
2022/08/27 08:52:22;;;;;;;;;7.50;7.50;;;;;21.75;54.27;101522.13;5091445;27;49760;-70
2022/08/27 08:54:48;;;;;;;;;3.75;3.75;;;;;21.60;53.79;101496.50;5091815;27;50065;-70
2022/08/27 08:57:27;;;;;;;;;10.25;6.00;;;;;21.51;54.36;101488.59;5091231;27;50979;-70
2022/08/27 09:00:11;;;;;;;;;7.25;6.25;;;;;21.80;54.30;101516.72;5091183;27;49828;-69
2022/08/27 09:02:37;;;;;;;;;11.25;4.25;;;;;21.72;53.98;101492.78;5091315;27;50054;-70
2022/08/27 09:05:06;;;;;;;;;4.00;3.50;;;;;21.97;53.41;101507.56;5091216;27;49861;-71
2022/08/27 09:07:44;;;;;;;;;5.75;4.50;;;;;22.02;52.45;101510.19;5091341;27;50706;-70
2022/08/27 09:10:09;;;;;;;;;5.75;4.75;;;;;22.11;51.67;101518.09;5091043;27;49841;-70
2022/08/27 09:12:35;;;;;;;;;11.25;9.75;;;;;21.88;51.04;101485.44;5091006;27;49952;-71
2022/08/27 09:15:11;;;;;;;;;5.00;4.75;;;;;21.84;51.33;101503.31;5091332;27;49906;-72
2022/08/27 09:17:37;;;;;;;;;6.75;5.25;;;;;21.83;50.86;101489.97;5089864;27;51201;-71
2022/08/27 09:20:04;;;;;;;;;5.75;5.00;;;;;21.79;51.25;101467.72;5090614;27;49886;-69
2022/08/27 09:23:04;;;;;;;;;6.25;6.25;;;;;22.18;51.88;101518.88;5091164;27;49793;-70
2022/08/27 09:25:36;;;;;;;;;5.75;5.75;;;;;22.11;52.08;101502.06;5091163;27;49714;-70
2022/08/27 09:29:14;;;;;;;;;11.00;9.50;;;;;22.12;51.97;101495.81;5091221;27;50090;-70
2022/08/27 09:31:01;;;;;;;;;7.25;5.50;;;;;22.28;51.13;101497.31;5090442;27;49698;-70
2022/08/27 09:33:26;;;;;;;;;4.50;3.25;;;;;22.22;50.30;101481.38;5090410;27;49693;-70
2022/08/27 09:35:52;;;;;;;;;3.25;2.50;;;;;22.25;49.36;101459.94;5090690;27;49692;-70
2022/08/27 09:38:28;;;;;;;;;3.75;2.75;;;;;22.49;49.27;101506.81;5091069;27;50936;-70
2022/08/27 09:40:56;;;;;;;;;5.25;4.50;;;;;22.39;47.79;101501.59;5090651;27;49738;-70
2022/08/27 09:43:27;;;;;;;;;3.00;3.00;;;;;22.42;48.75;101478.38;5090621;27;49813;-70
2022/08/27 09:45:59;;;;;;;;;6.25;5.00;;;;;22.37;48.67;101474.88;5090800;27;49914;-70
2022/08/27 09:48:28;;;;;;;;;7.25;5.50;;;;;22.65;48.59;101503.84;5090265;27;49623;-70
2022/08/27 09:50:57;;;;;;;;;3.75;3.75;;;;;22.80;48.78;101519.66;5090611;27;50053;-70
2022/08/27 09:53:39;;;;;;;;;3.25;3.25;;;;;22.75;48.70;101525.06;5090427;27;49847;-70
2022/08/27 09:56:07;;;;;;;;;5.00;5.00;;;;;22.65;48.68;101487.78;5089381;27;49695;-70
2022/08/27 09:58:48;;;;;;;;;7.00;7.00;;;;;22.90;48.18;101512.38;5089734;27;50944;-70
2022/08/27 10:01:23;;;;;;;;;2.50;2.50;;;;;22.94;47.80;101503.38;5070718;27;49818;-70
2022/08/27 10:03:48;;;;;;;;;5.25;4.25;;;;;23.03;46.34;101503.19;5070928;27;49853;-70
2022/08/27 10:06:26;;;;;;;;;5.00;5.00;;;;;22.91;46.36;101495.41;5071012;27;50030;-70
2022/08/27 10:08:56;;;;;;;;;5.75;3.25;;;;;22.99;46.14;101509.53;5069428;27;50572;-69
2022/08/27 10:11:30;;;;;;;;;3.00;3.00;;;;;22.84;45.58;101466.06;5070389;27;49818;-70
2022/08/27 10:14:00;;;;;;;;;2.25;2.25;;;;;23.16;44.54;101511.88;5070804;27;49605;-70
2022/08/27 10:16:51;;;;;;;;;3.75;3.75;;;;;23.21;45.32;101516.25;5070824;27;49602;-70
2022/08/27 10:19:29;;;;;;;;;6.50;4.25;;;;;23.26;45.72;101511.69;5068715;27;52353;-70
2022/08/27 10:22:26;;;;;;;;;4.50;4.25;;;;;23.23;45.57;101505.50;5083074;27;49743;-69
2022/08/27 10:25:10;;;;;;;;;4.25;2.25;;;;;23.28;45.35;101511.66;5090028;27;50570;-70
2022/08/27 10:27:48;;;;;;;;;4.00;4.00;;;;;23.24;45.22;101472.44;5090180;27;49805;-70
2022/08/27 10:30:17;;;;;;;;;3.00;3.00;;;;;23.42;44.23;101507.75;5089670;27;49700;-70
2022/08/27 10:33:01;;;;;;;;;5.00;5.00;;;;;23.33;43.74;101499.91;5090055;27;49804;-70
2022/08/27 10:35:50;;;;;;;;;6.00;4.00;;;;;23.41;43.61;101506.00;5088839;27;49756;-70
2022/08/27 10:38:37;;;;;;;;;5.00;3.75;;;;;23.31;43.78;101466.03;5090513;27;49973;-70
2022/08/27 10:41:27;;;;;;;;;4.25;3.00;;;;;23.54;41.94;101503.94;5089555;27;50693;-70
2022/08/27 10:44:15;;;;;;;;;2.75;2.75;;;;;23.54;41.85;101503.06;5089827;27;49891;-70
2022/08/27 10:46:46;;;;;;;;;3.75;3.50;;;;;23.62;42.65;101493.09;5089757;27;49775;-70
2022/08/27 10:49:18;;;;;;;;;4.75;4.00;;;;;23.60;41.99;101497.63;5089593;27;49785;-70
2022/08/27 10:51:46;;;;;;;;;3.00;3.00;;;;;23.69;42.02;101484.00;5089404;27;49776;-70
2022/08/27 10:54:35;;;;;;;;;4.00;4.00;;;;;23.63;42.33;101493.06;5089730;27;49771;-70
2022/08/27 10:57:07;;;;;;;;;6.25;5.50;;;;;23.48;42.16;101465.69;5090187;27;49919;-70
2022/08/27 10:59:56;;;;;;;;;6.75;6.75;;;;;23.62;42.42;101474.34;5089879;27;49586;-70
2022/08/27 11:02:32;;;;;;;;;3.75;3.75;;;;;23.85;42.31;101490.81;5089656;27;50969;-70
2022/08/27 11:05:05;;;;;;;;;6.25;5.75;;;;;23.73;41.97;101456.22;5089374;27;49725;-70
2022/08/27 11:07:39;;;;;;;;;3.00;3.00;;;;;23.84;42.40;101470.28;5089646;27;49885;-70
2022/08/27 11:10:12;;;;;;;;;6.00;6.00;;;;;23.88;42.89;101465.72;5092266;27;49578;-70
2022/08/27 11:12:43;;;;;;;;;5.75;5.00;;;;;24.01;42.58;101471.66;5092876;27;50925;-70
2022/08/27 11:15:22;;;;;;;;;4.75;4.25;;;;;24.05;42.93;101471.56;5072124;27;49977;-70
2022/08/27 11:17:57;;;;;;;;;5.00;3.50;;;;;23.90;43.10;101469.25;5087730;27;49752;-70
2022/08/27 11:20:44;;;;;;;;;4.50;3.50;;;;;23.89;42.52;101456.75;5091882;27;49859;-70
2022/08/27 11:23:18;;;;;;;;;4.25;4.25;;;;;23.77;42.34;101427.56;5092621;27;52413;-70
2022/08/27 11:26:00;;;;;;;;;4.75;3.25;;;;;24.06;41.79;101467.97;5092629;27;49854;-70
2022/08/27 11:28:38;;;;;;;;;4.50;4.50;;;;;23.97;41.88;101441.38;5092790;27;49774;-70
2022/08/27 11:31:40;;;;;;;;;6.00;5.25;;;;;24.13;41.67;101464.22;5092898;27;50452;-70
2022/08/27 11:34:19;;;;;;;;;9.00;4.00;;;;;24.05;41.38;101441.19;5081112;27;49939;-70
2022/08/27 11:37:22;;;;;;;;;6.00;4.00;;;;;24.14;41.74;101457.06;5092606;27;49618;-70
2022/08/27 11:40:08;;;;;;;;;4.00;4.00;;;;;24.22;41.78;101447.91;5092756;27;49825;-70
2022/08/27 11:42:43;;;;;;;;;5.00;3.50;;;;;23.95;40.21;101425.31;5092647;27;49976;-70